Time,TemperatureF,DewpointF,PressureIn,WindDirection,WindDirectionDegrees,WindSpeedMPH,WindSpeedGustMPH,Humidity,HourlyPrecipIn,Conditions,Clouds,dailyrainin,SolarRadiationWatts/m^2,SoftwareType,DateUTC
2013-07-26 00:01:00,65.0,58.0,-100.00,North,4,1.0,4.0,79,0.00,,,0.00,0.000000,,2013-07-26 04:01:00,
2013-07-26 00:32:00,65.0,58.0,-100.00,North,4,1.0,4.0,79,0.00,,,0.00,0.000000,,2013-07-26 04:32:00,
2013-07-26 00:43:00,65.0,58.0,-100.00,North,4,1.0,4.0,79,0.00,,,0.00,0.000000,,2013-07-26 04:43:00,
2013-07-26 00:53:00,65.0,58.0,-100.00,North,4,1.0,4.0,79,0.00,,,0.00,0.000000,,2013-07-26 04:53:00,
2013-07-26 01:01:00,62.0,56.0,-100.00,West,275,0.0,3.0,82,0.00,,,0.00,0.000000,,2013-07-26 05:01:00,
2013-07-26 01:32:00,62.0,56.0,-100.00,West,275,0.0,3.0,82,0.00,,,0.00,0.000000,,2013-07-26 05:32:00,
2013-07-26 01:43:00,62.0,56.0,-100.00,West,275,0.0,3.0,82,0.00,,,0.00,0.000000,,2013-07-26 05:43:00,
2013-07-26 01:52:00,62.0,56.0,-100.00,West,275,0.0,3.0,82,0.00,,,0.00,0.000000,,2013-07-26 05:52:00,
2013-07-26 02:01:00,62.0,56.0,-100.00,North,351,1.0,3.0,81,0.00,,,0.00,0.000000,,2013-07-26 06:01:00,
2013-07-26 02:33:00,62.0,56.0,-100.00,North,351,1.0,3.0,81,0.00,,,0.00,0.000000,,2013-07-26 06:33:00,
2013-07-26 02:43:00,62.0,56.0,-100.00,North,351,1.0,3.0,81,0.00,,,0.00,0.000000,,2013-07-26 06:43:00,
2013-07-26 02:52:00,62.0,56.0,-100.00,North,351,1.0,3.0,81,0.00,,,0.00,0.000000,,2013-07-26 06:52:00,
2013-07-26 03:01:00,61.0,55.0,-100.00,NNE,26,1.0,2.0,80,0.00,,,0.00,0.000000,,2013-07-26 07:01:00,
2013-07-26 03:32:00,61.0,55.0,-100.00,NNE,26,1.0,2.0,80,0.00,,,0.00,0.000000,,2013-07-26 07:32:00,
2013-07-26 03:43:00,61.0,55.0,-100.00,NNE,26,1.0,2.0,80,0.00,,,0.00,0.000000,,2013-07-26 07:43:00,
2013-07-26 03:53:00,61.0,55.0,-100.00,NNE,26,1.0,2.0,80,0.00,,,0.00,0.000000,,2013-07-26 07:53:00,
2013-07-26 04:01:00,60.0,54.0,-100.00,SW,233,1.0,2.0,80,0.00,,,0.00,0.000000,,2013-07-26 08:01:00,
2013-07-26 04:32:00,60.0,54.0,-100.00,SW,233,1.0,2.0,80,0.00,,,0.00,0.000000,,2013-07-26 08:32:00,
2013-07-26 04:44:00,60.0,54.0,-100.00,SW,233,1.0,2.0,80,0.00,,,0.00,0.000000,,2013-07-26 08:44:00,
2013-07-26 04:52:00,60.0,54.0,-100.00,SW,233,1.0,2.0,80,0.00,,,0.00,0.000000,,2013-07-26 08:52:00,
2013-07-26 05:01:00,58.0,54.0,-100.00,NNE,22,1.0,2.0,87,0.00,,,0.00,0.000000,,2013-07-26 09:01:00,
2013-07-26 05:22:00,58.0,54.0,-100.00,NNE,22,1.0,2.0,87,0.00,,,0.00,0.000000,,2013-07-26 09:22:00,
2013-07-26 05:32:00,58.0,54.0,-100.00,NNE,22,1.0,2.0,87,0.00,,,0.00,0.000000,,2013-07-26 09:32:00,
2013-07-26 05:43:00,58.0,54.0,-100.00,NNE,22,1.0,2.0,87,0.00,,,0.00,0.000000,,2013-07-26 09:43:00,
2013-07-26 05:52:00,58.0,54.0,-100.00,NNE,22,1.0,2.0,87,0.00,,,0.00,0.000000,,2013-07-26 09:52:00,
2013-07-26 06:01:00,57.0,54.0,-100.00,West,273,1.0,2.0,90,0.00,,,0.00,0.000000,,2013-07-26 10:01:00,
2013-07-26 06:33:00,57.0,54.0,-100.00,West,273,1.0,2.0,90,0.00,,,0.00,0.000000,,2013-07-26 10:33:00,
2013-07-26 06:43:00,57.0,54.0,-100.00,West,273,1.0,2.0,90,0.00,,,0.00,0.000000,,2013-07-26 10:43:00,
2013-07-26 06:53:00,57.0,54.0,-100.00,West,273,1.0,2.0,90,0.00,,,0.00,0.000000,,2013-07-26 10:53:00,
2013-07-26 07:01:00,57.0,55.0,-100.00,SSE,164,1.0,3.0,92,0.00,,,0.00,13.000000,,2013-07-26 11:01:00,
2013-07-26 07:32:00,57.0,55.0,-100.00,SSE,164,1.0,3.0,92,0.00,,,0.00,13.000000,,2013-07-26 11:32:00,
2013-07-26 07:43:00,57.0,55.0,-100.00,SSE,164,1.0,3.0,92,0.00,,,0.00,13.000000,,2013-07-26 11:43:00,
2013-07-26 07:52:00,57.0,55.0,-100.00,SSE,164,1.0,3.0,92,0.00,,,0.00,13.000000,,2013-07-26 11:52:00,
2013-07-26 08:01:00,62.0,59.0,-100.00,South,173,1.0,2.0,89,0.00,,,0.00,121.000000,,2013-07-26 12:01:00,
2013-07-26 08:22:00,62.0,59.0,-100.00,South,173,1.0,2.0,89,0.00,,,0.00,121.000000,,2013-07-26 12:22:00,
2013-07-26 08:33:00,62.0,59.0,-100.00,South,173,1.0,2.0,89,0.00,,,0.00,121.000000,,2013-07-26 12:33:00,
2013-07-26 08:43:00,62.0,59.0,-100.00,South,173,1.0,2.0,89,0.00,,,0.00,121.000000,,2013-07-26 12:43:00,
2013-07-26 08:53:00,62.0,59.0,-100.00,South,173,1.0,2.0,89,0.00,,,0.00,121.000000,,2013-07-26 12:53:00,
2013-07-26 09:01:00,67.0,58.0,-100.00,South,174,2.0,5.0,74,0.00,,,0.00,405.000000,,2013-07-26 13:01:00,
2013-07-26 09:43:00,67.0,58.0,-100.00,South,174,2.0,5.0,74,0.00,,,0.00,405.000000,,2013-07-26 13:43:00,
2013-07-26 09:53:00,67.0,58.0,-100.00,South,174,2.0,5.0,74,0.00,,,0.00,405.000000,,2013-07-26 13:53:00,
2013-07-26 10:01:00,70.0,60.0,-100.00,SW,222,2.0,4.0,70,0.00,,,0.00,627.000000,,2013-07-26 14:01:00,
2013-07-26 10:33:00,70.0,60.0,-100.00,SW,222,2.0,4.0,70,0.00,,,0.00,627.000000,,2013-07-26 14:33:00,
2013-07-26 10:43:00,70.0,60.0,-100.00,SW,222,2.0,4.0,70,0.00,,,0.00,627.000000,,2013-07-26 14:43:00,
2013-07-26 10:53:00,70.0,60.0,-100.00,SW,222,2.0,4.0,70,0.00,,,0.00,627.000000,,2013-07-26 14:53:00,
2013-07-26 11:01:00,70.0,61.0,-100.00,SSW,198,4.0,7.0,72,0.00,,,0.00,671.000000,,2013-07-26 15:01:00,
2013-07-26 11:22:00,70.0,61.0,-100.00,SSW,198,4.0,7.0,72,0.00,,,0.00,671.000000,,2013-07-26 15:22:00,
2013-07-26 11:33:00,70.0,61.0,-100.00,SSW,198,4.0,7.0,72,0.00,,,0.00,671.000000,,2013-07-26 15:33:00,
2013-07-26 11:43:00,70.0,61.0,-100.00,SSW,198,4.0,7.0,72,0.00,,,0.00,671.000000,,2013-07-26 15:43:00,
2013-07-26 11:53:00,70.0,61.0,-100.00,SSW,198,4.0,7.0,72,0.00,,,0.00,671.000000,,2013-07-26 15:53:00,
2013-07-26 12:01:00,76.0,65.0,-100.00,South,191,4.0,11.0,68,0.00,,,0.00,842.000000,,2013-07-26 16:01:00,
2013-07-26 12:32:00,76.0,65.0,-100.00,South,191,4.0,11.0,68,0.00,,,0.00,842.000000,,2013-07-26 16:32:00,
2013-07-26 12:43:00,76.0,65.0,-100.00,South,191,4.0,11.0,68,0.00,,,0.00,842.000000,,2013-07-26 16:43:00,
2013-07-26 12:54:00,76.0,65.0,-100.00,South,191,4.0,11.0,68,0.00,,,0.00,842.000000,,2013-07-26 16:54:00,
2013-07-26 13:01:00,75.0,63.0,-100.00,SSW,197,5.0,10.0,67,0.00,,,0.00,849.000000,,2013-07-26 17:01:00,
2013-07-26 13:33:00,75.0,63.0,-100.00,SSW,197,5.0,10.0,67,0.00,,,0.00,849.000000,,2013-07-26 17:33:00,
2013-07-26 13:43:00,75.0,63.0,-100.00,SSW,197,5.0,10.0,67,0.00,,,0.00,849.000000,,2013-07-26 17:43:00,
2013-07-26 13:53:00,75.0,63.0,-100.00,SSW,197,5.0,10.0,67,0.00,,,0.00,849.000000,,2013-07-26 17:53:00,
2013-07-26 14:01:00,81.0,64.0,-100.00,SSW,197,4.0,9.0,57,0.00,,,0.00,1114.000000,,2013-07-26 18:01:00,
2013-07-26 14:33:00,81.0,64.0,-100.00,SSW,197,4.0,9.0,57,0.00,,,0.00,1114.000000,,2013-07-26 18:33:00,
2013-07-26 14:44:00,81.0,64.0,-100.00,SSW,197,4.0,9.0,57,0.00,,,0.00,1114.000000,,2013-07-26 18:44:00,
2013-07-26 14:53:00,81.0,64.0,-100.00,SSW,197,4.0,9.0,57,0.00,,,0.00,1114.000000,,2013-07-26 18:53:00,
2013-07-26 15:01:00,80.0,61.0,-100.00,SSW,192,3.0,8.0,53,0.00,,,0.00,995.000000,,2013-07-26 19:01:00,
2013-07-26 15:32:00,80.0,61.0,-100.00,SSW,192,3.0,8.0,53,0.00,,,0.00,995.000000,,2013-07-26 19:32:00,
2013-07-26 15:43:00,80.0,61.0,-100.00,SSW,192,3.0,8.0,53,0.00,,,0.00,995.000000,,2013-07-26 19:43:00,
2013-07-26 15:52:00,80.0,61.0,-100.00,SSW,192,3.0,8.0,53,0.00,,,0.00,995.000000,,2013-07-26 19:52:00,
2013-07-26 16:01:00,83.0,64.0,-100.00,SSW,196,3.0,7.0,53,0.00,,,0.00,1004.000000,,2013-07-26 20:01:00,
2013-07-26 16:32:00,83.0,64.0,-100.00,SSW,196,3.0,7.0,53,0.00,,,0.00,1004.000000,,2013-07-26 20:32:00,
2013-07-26 16:43:00,83.0,64.0,-100.00,SSW,196,3.0,7.0,53,0.00,,,0.00,1004.000000,,2013-07-26 20:43:00,
2013-07-26 16:53:00,83.0,64.0,-100.00,SSW,196,3.0,7.0,53,0.00,,,0.00,1004.000000,,2013-07-26 20:53:00,
2013-07-26 17:01:00,81.0,63.0,-100.00,SSW,209,4.0,7.0,54,0.00,,,0.00,777.000000,,2013-07-26 21:01:00,
2013-07-26 17:32:00,81.0,63.0,-100.00,SSW,209,4.0,7.0,54,0.00,,,0.00,777.000000,,2013-07-26 21:32:00,
2013-07-26 17:43:00,81.0,63.0,-100.00,SSW,209,4.0,7.0,54,0.00,,,0.00,777.000000,,2013-07-26 21:43:00,
2013-07-26 17:53:00,81.0,63.0,-100.00,SSW,209,4.0,7.0,54,0.00,,,0.00,777.000000,,2013-07-26 21:53:00,
2013-07-26 18:01:00,79.0,63.0,-100.00,SSW,200,4.0,8.0,58,0.00,,,-99.99,523.000000,,2013-07-26 22:01:00,
2013-07-26 18:33:00,79.0,63.0,-100.00,SSW,200,4.0,8.0,58,0.00,,,-99.99,523.000000,,2013-07-26 22:33:00,
2013-07-26 18:43:00,79.0,63.0,-100.00,SSW,200,4.0,8.0,58,0.00,,,-99.99,523.000000,,2013-07-26 22:43:00,
2013-07-26 18:53:00,79.0,63.0,-100.00,SSW,200,4.0,8.0,58,0.00,,,-99.99,523.000000,,2013-07-26 22:53:00,
2013-07-26 19:01:00,74.0,63.0,-100.00,SSW,202,2.0,7.0,69,0.00,,,0.00,251.000000,,2013-07-26 23:01:00,
2013-07-26 19:32:00,74.0,63.0,-100.00,SSW,202,2.0,7.0,69,0.00,,,0.00,251.000000,,2013-07-26 23:32:00,
2013-07-26 19:43:00,74.0,63.0,-100.00,SSW,202,2.0,7.0,69,0.00,,,0.00,251.000000,,2013-07-26 23:43:00,
2013-07-26 19:53:00,74.0,63.0,-100.00,SSW,202,2.0,7.0,69,0.00,,,0.00,251.000000,,2013-07-26 23:53:00,
2013-07-26 20:01:00,70.0,63.0,-100.00,SW,219,2.0,7.0,79,0.00,,,0.00,46.000000,,2013-07-27 00:01:00,
2013-07-26 20:32:00,70.0,63.0,-100.00,SW,219,2.0,7.0,79,0.00,,,0.00,46.000000,,2013-07-27 00:32:00,
2013-07-26 20:43:00,70.0,63.0,-100.00,SW,219,2.0,7.0,79,0.00,,,0.00,46.000000,,2013-07-27 00:43:00,
2013-07-26 20:53:00,70.0,63.0,-100.00,SW,219,2.0,7.0,79,0.00,,,0.00,46.000000,,2013-07-27 00:53:00,
2013-07-26 21:01:00,68.0,63.0,-100.00,SSW,204,3.0,6.0,85,0.00,,,0.00,6.000000,,2013-07-27 01:01:00,
2013-07-26 21:22:00,68.0,63.0,-100.00,SSW,204,3.0,6.0,85,0.00,,,0.00,6.000000,,2013-07-27 01:22:00,
2013-07-26 21:32:00,68.0,63.0,-100.00,SSW,204,3.0,6.0,85,0.00,,,0.00,6.000000,,2013-07-27 01:32:00,
2013-07-26 21:44:00,68.0,63.0,-100.00,SSW,204,3.0,6.0,85,0.00,,,0.00,6.000000,,2013-07-27 01:44:00,
2013-07-26 21:53:00,68.0,63.0,-100.00,SSW,204,3.0,6.0,85,0.00,,,0.00,6.000000,,2013-07-27 01:53:00,
2013-07-26 22:01:00,67.0,63.0,-100.00,SSW,213,3.0,6.0,87,0.00,,,0.00,0.000000,,2013-07-27 02:01:00,
2013-07-26 22:22:00,67.0,63.0,-100.00,SSW,213,3.0,6.0,87,0.00,,,0.00,0.000000,,2013-07-27 02:22:00,
2013-07-26 22:32:00,67.0,63.0,-100.00,SSW,213,3.0,6.0,87,0.00,,,0.00,0.000000,,2013-07-27 02:32:00,
2013-07-26 22:43:00,67.0,63.0,-100.00,SSW,213,3.0,6.0,87,0.00,,,0.00,0.000000,,2013-07-27 02:43:00,
2013-07-26 22:53:00,67.0,63.0,-100.00,SSW,213,3.0,6.0,87,0.00,,,0.00,0.000000,,2013-07-27 02:53:00,
2013-07-26 23:01:00,66.0,64.0,-100.00,SSW,204,1.0,5.0,92,0.00,,,0.00,0.000000,,2013-07-27 03:01:00,
2013-07-26 23:33:00,66.0,64.0,-100.00,SSW,204,1.0,5.0,92,0.00,,,0.00,0.000000,,2013-07-27 03:33:00,
2013-07-26 23:44:00,66.0,64.0,-100.00,SSW,204,1.0,5.0,92,0.00,,,0.00,0.000000,,2013-07-27 03:44:00,
2013-07-26 23:52:00,66.0,64.0,-100.00,SSW,204,1.0,5.0,92,0.00,,,0.00,0.000000,,2013-07-27 03:52:00,